sensor_id;sensor_type;location;lat;lon;timestamp;P1;durP1;ratioP1;P2;durP2;ratioP2
3052;SDS011;1536;51.098;6.414;2023-02-20T00:00:06;9.85;;;7.30;;
3052;SDS011;1536;51.098;6.414;2023-02-20T00:02:41;12.80;;;9.15;;
3052;SDS011;1536;51.098;6.414;2023-02-20T00:05:07;11.60;;;7.68;;
3052;SDS011;1536;51.098;6.414;2023-02-20T00:07:34;9.68;;;7.68;;
3052;SDS011;1536;51.098;6.414;2023-02-20T00:10:03;11.10;;;8.15;;
3052;SDS011;1536;51.098;6.414;2023-02-20T00:12:30;9.63;;;7.85;;
3052;SDS011;1536;51.098;6.414;2023-02-20T00:14:57;7.93;;;7.13;;
3052;SDS011;1536;51.098;6.414;2023-02-20T00:17:23;9.07;;;7.03;;
3052;SDS011;1536;51.098;6.414;2023-02-20T00:19:52;15.73;;;8.73;;
3052;SDS011;1536;51.098;6.414;2023-02-20T00:22:20;10.38;;;8.48;;
3052;SDS011;1536;51.098;6.414;2023-02-20T00:24:47;17.60;;;7.93;;
3052;SDS011;1536;51.098;6.414;2023-02-20T00:27:15;22.80;;;8.60;;
3052;SDS011;1536;51.098;6.414;2023-02-20T00:29:42;13.82;;;8.27;;
3052;SDS011;1536;51.098;6.414;2023-02-20T00:32:10;10.80;;;8.90;;
3052;SDS011;1536;51.098;6.414;2023-02-20T00:34:37;10.75;;;8.25;;
3052;SDS011;1536;51.098;6.414;2023-02-20T00:37:04;10.50;;;8.40;;
3052;SDS011;1536;51.098;6.414;2023-02-20T00:39:30;9.88;;;7.82;;
3052;SDS011;1536;51.098;6.414;2023-02-20T00:41:57;11.63;;;8.60;;
3052;SDS011;1536;51.098;6.414;2023-02-20T00:44:25;10.48;;;8.63;;
3052;SDS011;1536;51.098;6.414;2023-02-20T00:46:52;9.38;;;8.43;;
3052;SDS011;1536;51.098;6.414;2023-02-20T00:49:19;10.38;;;9.02;;
3052;SDS011;1536;51.098;6.414;2023-02-20T00:51:46;15.23;;;8.93;;
3052;SDS011;1536;51.098;6.414;2023-02-20T00:54:13;12.07;;;8.40;;
3052;SDS011;1536;51.098;6.414;2023-02-20T00:56:40;16.15;;;9.40;;
3052;SDS011;1536;51.098;6.414;2023-02-20T00:59:07;13.63;;;8.90;;
3052;SDS011;1536;51.098;6.414;2023-02-20T01:01:35;11.15;;;8.32;;
3052;SDS011;1536;51.098;6.414;2023-02-20T01:04:01;12.18;;;9.60;;
3052;SDS011;1536;51.098;6.414;2023-02-20T01:06:28;11.07;;;9.70;;
3052;SDS011;1536;51.098;6.414;2023-02-20T01:08:55;10.45;;;8.18;;
3052;SDS011;1536;51.098;6.414;2023-02-20T01:11:22;13.02;;;10.00;;
3052;SDS011;1536;51.098;6.414;2023-02-20T01:13:48;11.38;;;9.65;;
3052;SDS011;1536;51.098;6.414;2023-02-20T01:16:15;14.15;;;9.30;;
3052;SDS011;1536;51.098;6.414;2023-02-20T01:18:43;12.90;;;10.60;;
3052;SDS011;1536;51.098;6.414;2023-02-20T01:21:10;14.40;;;11.15;;
3052;SDS011;1536;51.098;6.414;2023-02-20T01:23:37;14.05;;;11.40;;
3052;SDS011;1536;51.098;6.414;2023-02-20T01:26:03;15.73;;;12.18;;
3052;SDS011;1536;51.098;6.414;2023-02-20T01:28:30;12.00;;;10.23;;
3052;SDS011;1536;51.098;6.414;2023-02-20T01:30:57;17.17;;;11.50;;
3052;SDS011;1536;51.098;6.414;2023-02-20T01:33:23;16.15;;;12.45;;
3052;SDS011;1536;51.098;6.414;2023-02-20T01:35:52;13.45;;;10.35;;
3052;SDS011;1536;51.098;6.414;2023-02-20T01:38:18;15.80;;;11.57;;
3052;SDS011;1536;51.098;6.414;2023-02-20T01:40:46;17.20;;;11.40;;
3052;SDS011;1536;51.098;6.414;2023-02-20T01:43:13;17.55;;;12.23;;
3052;SDS011;1536;51.098;6.414;2023-02-20T01:45:41;19.75;;;12.48;;
3052;SDS011;1536;51.098;6.414;2023-02-20T01:48:11;16.27;;;9.82;;
3052;SDS011;1536;51.098;6.414;2023-02-20T01:50:45;16.60;;;10.85;;
3052;SDS011;1536;51.098;6.414;2023-02-20T01:53:15;16.42;;;11.38;;
3052;SDS011;1536;51.098;6.414;2023-02-20T01:55:45;15.00;;;10.70;;
3052;SDS011;1536;51.098;6.414;2023-02-20T01:58:16;16.85;;;11.02;;
3052;SDS011;1536;51.098;6.414;2023-02-20T02:00:46;17.02;;;10.52;;
3052;SDS011;1536;51.098;6.414;2023-02-20T02:03:13;13.77;;;10.73;;
3052;SDS011;1536;51.098;6.414;2023-02-20T02:05:45;16.88;;;11.45;;
3052;SDS011;1536;51.098;6.414;2023-02-20T02:08:15;17.83;;;11.07;;
3052;SDS011;1536;51.098;6.414;2023-02-20T02:10:46;16.10;;;11.35;;
3052;SDS011;1536;51.098;6.414;2023-02-20T02:13:17;15.52;;;11.40;;
3052;SDS011;1536;51.098;6.414;2023-02-20T02:15:44;17.35;;;11.30;;
3052;SDS011;1536;51.098;6.414;2023-02-20T02:18:15;13.60;;;10.40;;
3052;SDS011;1536;51.098;6.414;2023-02-20T02:21:08;17.60;;;10.45;;
3052;SDS011;1536;51.098;6.414;2023-02-20T02:24:19;17.73;;;12.35;;
3052;SDS011;1536;51.098;6.414;2023-02-20T02:27:13;13.30;;;10.07;;
3052;SDS011;1536;51.098;6.414;2023-02-20T02:30:05;15.05;;;10.30;;
3052;SDS011;1536;51.098;6.414;2023-02-20T02:33:02;15.63;;;10.05;;
3052;SDS011;1536;51.098;6.414;2023-02-20T02:36:07;14.05;;;10.18;;
3052;SDS011;1536;51.098;6.414;2023-02-20T02:38:46;13.68;;;10.20;;
3052;SDS011;1536;51.098;6.414;2023-02-20T02:41:23;18.58;;;10.40;;
3052;SDS011;1536;51.098;6.414;2023-02-20T02:43:57;14.65;;;9.60;;
3052;SDS011;1536;51.098;6.414;2023-02-20T02:46:33;15.27;;;9.43;;
3052;SDS011;1536;51.098;6.414;2023-02-20T02:49:06;12.13;;;7.95;;
3052;SDS011;1536;51.098;6.414;2023-02-20T02:51:42;11.52;;;8.10;;
3052;SDS011;1536;51.098;6.414;2023-02-20T02:54:12;13.68;;;8.80;;
3052;SDS011;1536;51.098;6.414;2023-02-20T02:56:42;12.32;;;8.98;;
3052;SDS011;1536;51.098;6.414;2023-02-20T02:59:11;13.52;;;7.85;;
3052;SDS011;1536;51.098;6.414;2023-02-20T03:01:41;12.73;;;7.95;;
3052;SDS011;1536;51.098;6.414;2023-02-20T03:04:12;11.55;;;6.53;;
3052;SDS011;1536;51.098;6.414;2023-02-20T03:06:49;11.00;;;7.25;;
3052;SDS011;1536;51.098;6.414;2023-02-20T03:09:21;17.27;;;7.50;;
3052;SDS011;1536;51.098;6.414;2023-02-20T03:11:53;13.38;;;7.50;;
3052;SDS011;1536;51.098;6.414;2023-02-20T03:14:22;13.05;;;7.15;;
3052;SDS011;1536;51.098;6.414;2023-02-20T03:17:12;8.88;;;6.28;;
3052;SDS011;1536;51.098;6.414;2023-02-20T03:19:44;7.90;;;5.85;;
3052;SDS011;1536;51.098;6.414;2023-02-20T03:22:15;13.15;;;6.75;;
3052;SDS011;1536;51.098;6.414;2023-02-20T03:24:44;18.85;;;7.50;;
3052;SDS011;1536;51.098;6.414;2023-02-20T03:27:25;13.23;;;5.97;;
3052;SDS011;1536;51.098;6.414;2023-02-20T03:30:03;10.23;;;6.40;;
3052;SDS011;1536;51.098;6.414;2023-02-20T03:32:34;8.05;;;6.25;;
3052;SDS011;1536;51.098;6.414;2023-02-20T03:35:20;10.50;;;5.45;;
3052;SDS011;1536;51.098;6.414;2023-02-20T03:38:08;7.78;;;5.80;;
3052;SDS011;1536;51.098;6.414;2023-02-20T03:40:53;13.07;;;5.00;;
3052;SDS011;1536;51.098;6.414;2023-02-20T03:43:39;12.95;;;6.55;;
3052;SDS011;1536;51.098;6.414;2023-02-20T03:46:10;7.30;;;5.65;;
3052;SDS011;1536;51.098;6.414;2023-02-20T03:48:42;12.35;;;5.72;;
3052;SDS011;1536;51.098;6.414;2023-02-20T03:51:13;9.15;;;5.47;;
3052;SDS011;1536;51.098;6.414;2023-02-20T03:53:42;9.02;;;5.40;;
3052;SDS011;1536;51.098;6.414;2023-02-20T03:56:12;10.57;;;5.80;;
3052;SDS011;1536;51.098;6.414;2023-02-20T03:58:44;10.32;;;5.38;;
3052;SDS011;1536;51.098;6.414;2023-02-20T04:01:13;7.47;;;4.90;;
3052;SDS011;1536;51.098;6.414;2023-02-20T04:03:43;11.15;;;5.60;;
3052;SDS011;1536;51.098;6.414;2023-02-20T04:06:13;9.68;;;5.32;;
3052;SDS011;1536;51.098;6.414;2023-02-20T04:08:44;10.20;;;4.97;;
3052;SDS011;1536;51.098;6.414;2023-02-20T04:11:18;9.35;;;5.00;;
3052;SDS011;1536;51.098;6.414;2023-02-20T04:13:49;6.75;;;4.57;;
3052;SDS011;1536;51.098;6.414;2023-02-20T04:16:17;8.95;;;4.20;;
3052;SDS011;1536;51.098;6.414;2023-02-20T04:18:46;10.98;;;4.72;;
3052;SDS011;1536;51.098;6.414;2023-02-20T04:21:18;6.20;;;4.10;;
3052;SDS011;1536;51.098;6.414;2023-02-20T04:23:51;15.20;;;5.18;;
3052;SDS011;1536;51.098;6.414;2023-02-20T04:26:27;13.85;;;4.30;;
3052;SDS011;1536;51.098;6.414;2023-02-20T04:28:53;10.75;;;4.25;;
3052;SDS011;1536;51.098;6.414;2023-02-20T04:31:20;8.25;;;3.92;;
3052;SDS011;1536;51.098;6.414;2023-02-20T04:33:48;8.70;;;3.80;;
3052;SDS011;1536;51.098;6.414;2023-02-20T04:36:14;4.72;;;3.30;;
3052;SDS011;1536;51.098;6.414;2023-02-20T04:38:41;9.10;;;4.85;;
3052;SDS011;1536;51.098;6.414;2023-02-20T04:41:09;10.05;;;4.57;;
3052;SDS011;1536;51.098;6.414;2023-02-20T04:43:36;13.23;;;5.20;;
3052;SDS011;1536;51.098;6.414;2023-02-20T04:46:02;11.02;;;4.53;;
3052;SDS011;1536;51.098;6.414;2023-02-20T04:48:29;13.10;;;4.15;;
3052;SDS011;1536;51.098;6.414;2023-02-20T04:50:56;8.55;;;4.00;;
3052;SDS011;1536;51.098;6.414;2023-02-20T04:53:23;7.65;;;4.20;;
3052;SDS011;1536;51.098;6.414;2023-02-20T04:55:49;10.40;;;4.50;;
3052;SDS011;1536;51.098;6.414;2023-02-20T04:58:17;10.98;;;4.05;;
3052;SDS011;1536;51.098;6.414;2023-02-20T05:00:44;7.53;;;3.95;;
3052;SDS011;1536;51.098;6.414;2023-02-20T05:03:11;8.57;;;5.00;;
3052;SDS011;1536;51.098;6.414;2023-02-20T05:05:37;7.03;;;4.40;;
3052;SDS011;1536;51.098;6.414;2023-02-20T05:08:05;6.32;;;3.83;;
3052;SDS011;1536;51.098;6.414;2023-02-20T05:10:33;6.30;;;4.07;;
3052;SDS011;1536;51.098;6.414;2023-02-20T05:13:00;7.97;;;3.92;;
3052;SDS011;1536;51.098;6.414;2023-02-20T05:15:29;6.95;;;4.15;;
3052;SDS011;1536;51.098;6.414;2023-02-20T05:17:57;8.93;;;4.10;;
3052;SDS011;1536;51.098;6.414;2023-02-20T05:20:23;12.00;;;4.65;;
3052;SDS011;1536;51.098;6.414;2023-02-20T05:23:11;7.38;;;3.85;;
3052;SDS011;1536;51.098;6.414;2023-02-20T05:25:37;6.33;;;4.30;;
3052;SDS011;1536;51.098;6.414;2023-02-20T05:28:03;10.82;;;4.95;;
3052;SDS011;1536;51.098;6.414;2023-02-20T05:30:31;8.00;;;5.40;;
3052;SDS011;1536;51.098;6.414;2023-02-20T05:32:58;8.32;;;4.72;;
3052;SDS011;1536;51.098;6.414;2023-02-20T05:35:25;8.13;;;5.03;;
3052;SDS011;1536;51.098;6.414;2023-02-20T05:37:52;10.05;;;4.80;;
3052;SDS011;1536;51.098;6.414;2023-02-20T05:40:19;10.68;;;6.10;;
3052;SDS011;1536;51.098;6.414;2023-02-20T05:42:45;10.57;;;5.82;;
3052;SDS011;1536;51.098;6.414;2023-02-20T05:45:12;8.30;;;5.65;;
3052;SDS011;1536;51.098;6.414;2023-02-20T05:47:41;15.00;;;6.70;;
3052;SDS011;1536;51.098;6.414;2023-02-20T05:50:08;15.23;;;8.18;;
3052;SDS011;1536;51.098;6.414;2023-02-20T05:52:34;8.90;;;6.97;;
3052;SDS011;1536;51.098;6.414;2023-02-20T05:55:01;13.25;;;8.30;;
3052;SDS011;1536;51.098;6.414;2023-02-20T05:57:28;12.27;;;8.20;;
3052;SDS011;1536;51.098;6.414;2023-02-20T05:59:55;12.80;;;6.95;;
3052;SDS011;1536;51.098;6.414;2023-02-20T06:02:21;13.10;;;7.40;;
3052;SDS011;1536;51.098;6.414;2023-02-20T06:04:49;13.55;;;7.65;;
3052;SDS011;1536;51.098;6.414;2023-02-20T06:07:16;17.80;;;9.00;;
3052;SDS011;1536;51.098;6.414;2023-02-20T06:09:43;14.85;;;9.55;;
3052;SDS011;1536;51.098;6.414;2023-02-20T06:12:10;10.30;;;6.47;;
3052;SDS011;1536;51.098;6.414;2023-02-20T06:14:38;14.15;;;7.10;;
3052;SDS011;1536;51.098;6.414;2023-02-20T06:17:05;11.68;;;8.02;;
3052;SDS011;1536;51.098;6.414;2023-02-20T06:19:32;11.75;;;6.97;;
3052;SDS011;1536;51.098;6.414;2023-02-20T06:22:00;10.95;;;7.80;;
3052;SDS011;1536;51.098;6.414;2023-02-20T06:24:26;12.40;;;7.72;;
3052;SDS011;1536;51.098;6.414;2023-02-20T06:26:54;15.77;;;10.25;;
3052;SDS011;1536;51.098;6.414;2023-02-20T06:29:21;12.32;;;9.40;;
3052;SDS011;1536;51.098;6.414;2023-02-20T06:31:48;14.02;;;9.80;;
3052;SDS011;1536;51.098;6.414;2023-02-20T06:34:15;13.57;;;10.88;;
3052;SDS011;1536;51.098;6.414;2023-02-20T06:36:42;12.48;;;10.00;;
3052;SDS011;1536;51.098;6.414;2023-02-20T06:39:11;16.63;;;11.55;;
3052;SDS011;1536;51.098;6.414;2023-02-20T06:41:39;13.77;;;10.60;;
3052;SDS011;1536;51.098;6.414;2023-02-20T06:44:05;19.80;;;12.70;;
3052;SDS011;1536;51.098;6.414;2023-02-20T06:46:32;15.68;;;11.60;;
3052;SDS011;1536;51.098;6.414;2023-02-20T06:48:59;20.05;;;13.23;;
3052;SDS011;1536;51.098;6.414;2023-02-20T06:51:28;17.05;;;13.68;;
3052;SDS011;1536;51.098;6.414;2023-02-20T06:53:55;23.60;;;15.43;;
3052;SDS011;1536;51.098;6.414;2023-02-20T06:56:25;21.90;;;14.73;;
3052;SDS011;1536;51.098;6.414;2023-02-20T06:58:53;21.83;;;14.15;;
3052;SDS011;1536;51.098;6.414;2023-02-20T07:01:20;21.23;;;14.45;;
3052;SDS011;1536;51.098;6.414;2023-02-20T07:03:50;23.08;;;14.73;;
3052;SDS011;1536;51.098;6.414;2023-02-20T07:06:19;18.58;;;15.40;;
3052;SDS011;1536;51.098;6.414;2023-02-20T07:08:45;21.15;;;15.20;;
3052;SDS011;1536;51.098;6.414;2023-02-20T07:11:12;23.67;;;15.27;;
3052;SDS011;1536;51.098;6.414;2023-02-20T07:13:43;21.92;;;15.75;;
3052;SDS011;1536;51.098;6.414;2023-02-20T07:16:10;26.17;;;17.33;;
3052;SDS011;1536;51.098;6.414;2023-02-20T07:18:36;23.58;;;15.75;;
3052;SDS011;1536;51.098;6.414;2023-02-20T07:21:03;24.15;;;15.00;;
3052;SDS011;1536;51.098;6.414;2023-02-20T07:23:30;19.60;;;14.82;;
3052;SDS011;1536;51.098;6.414;2023-02-20T07:25:57;21.80;;;16.38;;
3052;SDS011;1536;51.098;6.414;2023-02-20T07:28:24;22.73;;;16.77;;
3052;SDS011;1536;51.098;6.414;2023-02-20T07:30:52;19.90;;;14.73;;
3052;SDS011;1536;51.098;6.414;2023-02-20T07:33:18;20.92;;;16.08;;
3052;SDS011;1536;51.098;6.414;2023-02-20T07:35:45;18.45;;;14.63;;
3052;SDS011;1536;51.098;6.414;2023-02-20T07:38:12;26.70;;;16.67;;
3052;SDS011;1536;51.098;6.414;2023-02-20T07:40:39;19.52;;;16.25;;
3052;SDS011;1536;51.098;6.414;2023-02-20T07:43:05;19.30;;;14.90;;
3052;SDS011;1536;51.098;6.414;2023-02-20T07:45:32;18.67;;;16.27;;
3052;SDS011;1536;51.098;6.414;2023-02-20T07:48:00;18.38;;;14.98;;
3052;SDS011;1536;51.098;6.414;2023-02-20T07:50:27;20.23;;;15.43;;
3052;SDS011;1536;51.098;6.414;2023-02-20T07:52:53;16.25;;;13.73;;
3052;SDS011;1536;51.098;6.414;2023-02-20T07:55:20;18.17;;;14.10;;
3052;SDS011;1536;51.098;6.414;2023-02-20T07:57:47;19.33;;;13.57;;
3052;SDS011;1536;51.098;6.414;2023-02-20T08:00:16;18.27;;;13.85;;
3052;SDS011;1536;51.098;6.414;2023-02-20T08:02:44;16.98;;;13.43;;
3052;SDS011;1536;51.098;6.414;2023-02-20T08:05:12;17.27;;;13.05;;
3052;SDS011;1536;51.098;6.414;2023-02-20T08:07:42;17.77;;;13.85;;
3052;SDS011;1536;51.098;6.414;2023-02-20T08:10:10;20.85;;;13.77;;
3052;SDS011;1536;51.098;6.414;2023-02-20T08:12:37;19.35;;;12.93;;
3052;SDS011;1536;51.098;6.414;2023-02-20T08:15:04;23.90;;;11.98;;
3052;SDS011;1536;51.098;6.414;2023-02-20T08:17:31;21.40;;;13.13;;
3052;SDS011;1536;51.098;6.414;2023-02-20T08:19:58;18.85;;;13.38;;
3052;SDS011;1536;51.098;6.414;2023-02-20T08:22:26;20.15;;;13.10;;
3052;SDS011;1536;51.098;6.414;2023-02-20T08:24:53;20.33;;;12.63;;
3052;SDS011;1536;51.098;6.414;2023-02-20T08:27:19;20.73;;;13.90;;
3052;SDS011;1536;51.098;6.414;2023-02-20T08:29:46;15.85;;;13.30;;
3052;SDS011;1536;51.098;6.414;2023-02-20T08:32:13;18.08;;;14.15;;
3052;SDS011;1536;51.098;6.414;2023-02-20T08:34:40;15.70;;;12.73;;
3052;SDS011;1536;51.098;6.414;2023-02-20T08:37:06;18.40;;;11.77;;
3052;SDS011;1536;51.098;6.414;2023-02-20T08:39:35;16.00;;;11.40;;
3052;SDS011;1536;51.098;6.414;2023-02-20T08:42:02;14.05;;;12.57;;
3052;SDS011;1536;51.098;6.414;2023-02-20T08:44:29;15.15;;;11.52;;
3052;SDS011;1536;51.098;6.414;2023-02-20T08:46:56;20.73;;;12.55;;
3052;SDS011;1536;51.098;6.414;2023-02-20T08:49:22;17.10;;;12.10;;
3052;SDS011;1536;51.098;6.414;2023-02-20T08:51:51;21.30;;;12.57;;
3052;SDS011;1536;51.098;6.414;2023-02-20T08:54:19;15.18;;;11.45;;
3052;SDS011;1536;51.098;6.414;2023-02-20T08:56:48;16.10;;;12.00;;
3052;SDS011;1536;51.098;6.414;2023-02-20T08:59:15;17.75;;;11.43;;
3052;SDS011;1536;51.098;6.414;2023-02-20T09:01:42;16.80;;;10.95;;
3052;SDS011;1536;51.098;6.414;2023-02-20T09:04:09;18.30;;;12.05;;
3052;SDS011;1536;51.098;6.414;2023-02-20T09:06:36;16.75;;;10.93;;
3052;SDS011;1536;51.098;6.414;2023-02-20T09:09:03;18.27;;;12.15;;
3052;SDS011;1536;51.098;6.414;2023-02-20T09:11:30;16.52;;;11.35;;
3052;SDS011;1536;51.098;6.414;2023-02-20T09:13:58;22.83;;;13.27;;
3052;SDS011;1536;51.098;6.414;2023-02-20T09:16:24;16.55;;;11.02;;
3052;SDS011;1536;51.098;6.414;2023-02-20T09:18:52;20.45;;;12.32;;
3052;SDS011;1536;51.098;6.414;2023-02-20T09:21:19;18.80;;;12.73;;
3052;SDS011;1536;51.098;6.414;2023-02-20T09:23:46;16.30;;;12.35;;
3052;SDS011;1536;51.098;6.414;2023-02-20T09:26:13;21.17;;;12.68;;
3052;SDS011;1536;51.098;6.414;2023-02-20T09:28:40;16.90;;;10.45;;
3052;SDS011;1536;51.098;6.414;2023-02-20T09:31:08;23.00;;;11.88;;
3052;SDS011;1536;51.098;6.414;2023-02-20T09:33:35;22.35;;;11.07;;
3052;SDS011;1536;51.098;6.414;2023-02-20T09:36:02;20.52;;;11.90;;
3052;SDS011;1536;51.098;6.414;2023-02-20T09:38:29;13.02;;;11.20;;
3052;SDS011;1536;51.098;6.414;2023-02-20T09:40:57;16.15;;;11.43;;
3052;SDS011;1536;51.098;6.414;2023-02-20T09:43:29;14.93;;;12.15;;
3052;SDS011;1536;51.098;6.414;2023-02-20T09:46:05;17.85;;;10.10;;
3052;SDS011;1536;51.098;6.414;2023-02-20T09:48:42;16.60;;;12.13;;
3052;SDS011;1536;51.098;6.414;2023-02-20T09:51:18;13.98;;;11.07;;
3052;SDS011;1536;51.098;6.414;2023-02-20T09:53:49;14.65;;;10.10;;
3052;SDS011;1536;51.098;6.414;2023-02-20T09:56:21;15.45;;;10.80;;
3052;SDS011;1536;51.098;6.414;2023-02-20T09:58:52;14.55;;;10.52;;
3052;SDS011;1536;51.098;6.414;2023-02-20T10:01:25;14.75;;;10.35;;
3052;SDS011;1536;51.098;6.414;2023-02-20T10:03:55;15.82;;;11.00;;
3052;SDS011;1536;51.098;6.414;2023-02-20T10:06:24;16.35;;;10.63;;
3052;SDS011;1536;51.098;6.414;2023-02-20T10:08:54;15.82;;;11.43;;
3052;SDS011;1536;51.098;6.414;2023-02-20T10:11:24;24.40;;;12.40;;
3052;SDS011;1536;51.098;6.414;2023-02-20T10:14:12;18.40;;;11.10;;
3052;SDS011;1536;51.098;6.414;2023-02-20T10:16:49;17.50;;;11.77;;
3052;SDS011;1536;51.098;6.414;2023-02-20T10:19:25;21.40;;;10.95;;
3052;SDS011;1536;51.098;6.414;2023-02-20T10:22:04;20.27;;;11.35;;
3052;SDS011;1536;51.098;6.414;2023-02-20T10:24:41;16.02;;;11.77;;
3052;SDS011;1536;51.098;6.414;2023-02-20T10:27:17;15.32;;;11.55;;
3052;SDS011;1536;51.098;6.414;2023-02-20T10:29:50;17.13;;;11.25;;
3052;SDS011;1536;51.098;6.414;2023-02-20T10:32:22;19.50;;;10.57;;
3052;SDS011;1536;51.098;6.414;2023-02-20T10:34:56;17.13;;;10.10;;
3052;SDS011;1536;51.098;6.414;2023-02-20T10:37:31;18.35;;;11.43;;
3052;SDS011;1536;51.098;6.414;2023-02-20T10:40:05;14.98;;;11.10;;
3052;SDS011;1536;51.098;6.414;2023-02-20T10:42:37;14.38;;;10.77;;
3052;SDS011;1536;51.098;6.414;2023-02-20T10:45:10;13.05;;;9.60;;
3052;SDS011;1536;51.098;6.414;2023-02-20T10:47:44;15.63;;;10.73;;
3052;SDS011;1536;51.098;6.414;2023-02-20T10:50:15;14.40;;;11.32;;
3052;SDS011;1536;51.098;6.414;2023-02-20T10:52:49;16.90;;;10.80;;
3052;SDS011;1536;51.098;6.414;2023-02-20T10:55:20;14.23;;;11.05;;
3052;SDS011;1536;51.098;6.414;2023-02-20T10:57:53;17.38;;;10.73;;
3052;SDS011;1536;51.098;6.414;2023-02-20T11:00:26;14.80;;;9.82;;
3052;SDS011;1536;51.098;6.414;2023-02-20T11:03:01;15.25;;;10.10;;
3052;SDS011;1536;51.098;6.414;2023-02-20T11:05:34;18.60;;;10.95;;
3052;SDS011;1536;51.098;6.414;2023-02-20T11:08:05;17.02;;;11.02;;
3052;SDS011;1536;51.098;6.414;2023-02-20T11:10:32;16.25;;;11.35;;
3052;SDS011;1536;51.098;6.414;2023-02-20T11:12:59;13.00;;;9.70;;
3052;SDS011;1536;51.098;6.414;2023-02-20T11:15:28;15.07;;;10.88;;
3052;SDS011;1536;51.098;6.414;2023-02-20T11:17:57;21.67;;;12.60;;
3052;SDS011;1536;51.098;6.414;2023-02-20T11:20:39;15.20;;;10.40;;
3052;SDS011;1536;51.098;6.414;2023-02-20T11:23:10;13.30;;;11.07;;
3052;SDS011;1536;51.098;6.414;2023-02-20T11:28:56;13.60;;;10.27;;
3052;SDS011;1536;51.098;6.414;2023-02-20T11:31:26;15.50;;;10.65;;
3052;SDS011;1536;51.098;6.414;2023-02-20T11:33:55;18.63;;;11.77;;
3052;SDS011;1536;51.098;6.414;2023-02-20T11:36:22;15.77;;;12.32;;
3052;SDS011;1536;51.098;6.414;2023-02-20T11:38:58;15.65;;;11.82;;
3052;SDS011;1536;51.098;6.414;2023-02-20T11:41:28;16.20;;;11.52;;
3052;SDS011;1536;51.098;6.414;2023-02-20T11:44:15;12.27;;;9.48;;
3052;SDS011;1536;51.098;6.414;2023-02-20T11:46:47;19.95;;;12.85;;
3052;SDS011;1536;51.098;6.414;2023-02-20T11:49:34;17.42;;;12.13;;
3052;SDS011;1536;51.098;6.414;2023-02-20T11:52:08;17.15;;;11.75;;
3052;SDS011;1536;51.098;6.414;2023-02-20T11:54:40;19.13;;;10.48;;
3052;SDS011;1536;51.098;6.414;2023-02-20T11:57:15;18.65;;;12.00;;
3052;SDS011;1536;51.098;6.414;2023-02-20T11:59:48;22.10;;;11.40;;
3052;SDS011;1536;51.098;6.414;2023-02-20T12:02:25;20.85;;;11.07;;
3052;SDS011;1536;51.098;6.414;2023-02-20T12:05:11;15.50;;;10.43;;
3052;SDS011;1536;51.098;6.414;2023-02-20T12:07:43;17.15;;;11.40;;
3052;SDS011;1536;51.098;6.414;2023-02-20T12:10:15;19.13;;;11.70;;
3052;SDS011;1536;51.098;6.414;2023-02-20T12:12:50;12.77;;;9.88;;
3052;SDS011;1536;51.098;6.414;2023-02-20T12:15:19;15.40;;;11.88;;
3052;SDS011;1536;51.098;6.414;2023-02-20T12:17:53;13.57;;;11.30;;
3052;SDS011;1536;51.098;6.414;2023-02-20T12:20:43;15.30;;;10.60;;
3052;SDS011;1536;51.098;6.414;2023-02-20T12:23:15;14.20;;;11.35;;
3052;SDS011;1536;51.098;6.414;2023-02-20T12:25:52;17.02;;;11.30;;
3052;SDS011;1536;51.098;6.414;2023-02-20T12:28:30;14.80;;;10.77;;
3052;SDS011;1536;51.098;6.414;2023-02-20T12:31:08;16.15;;;10.23;;
3052;SDS011;1536;51.098;6.414;2023-02-20T12:33:55;14.23;;;10.38;;
3052;SDS011;1536;51.098;6.414;2023-02-20T12:36:35;15.18;;;10.25;;
3052;SDS011;1536;51.098;6.414;2023-02-20T12:39:05;14.90;;;10.88;;
3052;SDS011;1536;51.098;6.414;2023-02-20T12:41:41;18.25;;;10.52;;
3052;SDS011;1536;51.098;6.414;2023-02-20T12:44:25;17.65;;;10.55;;
3052;SDS011;1536;51.098;6.414;2023-02-20T12:47:01;13.70;;;10.43;;
3052;SDS011;1536;51.098;6.414;2023-02-20T12:49:41;12.82;;;10.85;;
3052;SDS011;1536;51.098;6.414;2023-02-20T12:52:25;16.10;;;11.65;;
3052;SDS011;1536;51.098;6.414;2023-02-20T12:55:14;18.75;;;12.20;;
3052;SDS011;1536;51.098;6.414;2023-02-20T12:57:47;21.00;;;12.15;;
3052;SDS011;1536;51.098;6.414;2023-02-20T13:00:21;21.08;;;12.60;;
3052;SDS011;1536;51.098;6.414;2023-02-20T13:02:54;16.67;;;12.52;;
3052;SDS011;1536;51.098;6.414;2023-02-20T13:05:25;15.00;;;11.30;;
3052;SDS011;1536;51.098;6.414;2023-02-20T13:07:55;18.25;;;13.25;;
3052;SDS011;1536;51.098;6.414;2023-02-20T13:10:29;21.98;;;13.77;;
3052;SDS011;1536;51.098;6.414;2023-02-20T13:12:58;16.67;;;11.13;;
3052;SDS011;1536;51.098;6.414;2023-02-20T13:15:41;20.08;;;13.10;;
3052;SDS011;1536;51.098;6.414;2023-02-20T13:18:13;20.73;;;13.27;;
3052;SDS011;1536;51.098;6.414;2023-02-20T13:20:49;22.73;;;14.73;;
3052;SDS011;1536;51.098;6.414;2023-02-20T13:23:28;22.75;;;13.88;;
3052;SDS011;1536;51.098;6.414;2023-02-20T13:25:57;29.08;;;15.30;;
3052;SDS011;1536;51.098;6.414;2023-02-20T13:31:13;22.10;;;14.15;;
3052;SDS011;1536;51.098;6.414;2023-02-20T13:33:42;25.02;;;13.93;;
3052;SDS011;1536;51.098;6.414;2023-02-20T13:42:03;19.00;;;14.60;;
3052;SDS011;1536;51.098;6.414;2023-02-20T13:44:50;17.60;;;13.63;;
3052;SDS011;1536;51.098;6.414;2023-02-20T13:47:30;19.05;;;13.18;;
3052;SDS011;1536;51.098;6.414;2023-02-20T13:49:58;16.30;;;12.43;;
3052;SDS011;1536;51.098;6.414;2023-02-20T13:52:35;19.35;;;12.50;;
3052;SDS011;1536;51.098;6.414;2023-02-20T13:55:15;22.58;;;13.80;;
3052;SDS011;1536;51.098;6.414;2023-02-20T13:57:48;20.23;;;12.85;;
3052;SDS011;1536;51.098;6.414;2023-02-20T14:00:20;15.55;;;11.10;;
3052;SDS011;1536;51.098;6.414;2023-02-20T14:02:50;18.38;;;12.75;;
3052;SDS011;1536;51.098;6.414;2023-02-20T14:05:18;14.95;;;11.68;;
3052;SDS011;1536;51.098;6.414;2023-02-20T14:07:47;14.25;;;10.80;;
3052;SDS011;1536;51.098;6.414;2023-02-20T14:10:17;22.20;;;12.82;;
3052;SDS011;1536;51.098;6.414;2023-02-20T14:12:52;17.17;;;10.93;;
3052;SDS011;1536;51.098;6.414;2023-02-20T14:15:22;16.02;;;11.40;;
3052;SDS011;1536;51.098;6.414;2023-02-20T14:17:50;19.70;;;11.95;;
3052;SDS011;1536;51.098;6.414;2023-02-20T14:20:19;16.85;;;12.32;;
3052;SDS011;1536;51.098;6.414;2023-02-20T14:22:48;24.05;;;12.20;;
3052;SDS011;1536;51.098;6.414;2023-02-20T14:25:33;14.45;;;11.10;;
3052;SDS011;1536;51.098;6.414;2023-02-20T14:28:04;17.85;;;11.68;;
3052;SDS011;1536;51.098;6.414;2023-02-20T14:30:33;19.42;;;12.25;;
3052;SDS011;1536;51.098;6.414;2023-02-20T14:33:02;17.98;;;11.93;;
3052;SDS011;1536;51.098;6.414;2023-02-20T14:35:48;15.15;;;12.18;;
3052;SDS011;1536;51.098;6.414;2023-02-20T14:38:39;13.75;;;11.23;;
3052;SDS011;1536;51.098;6.414;2023-02-20T14:41:16;15.82;;;11.65;;
3052;SDS011;1536;51.098;6.414;2023-02-20T14:43:52;22.33;;;12.00;;
3052;SDS011;1536;51.098;6.414;2023-02-20T14:46:20;13.55;;;11.45;;
3052;SDS011;1536;51.098;6.414;2023-02-20T14:48:50;17.92;;;11.13;;
3052;SDS011;1536;51.098;6.414;2023-02-20T14:51:29;16.77;;;12.30;;
3052;SDS011;1536;51.098;6.414;2023-02-20T14:53:58;13.50;;;10.70;;
3052;SDS011;1536;51.098;6.414;2023-02-20T14:56:27;16.23;;;10.77;;
3052;SDS011;1536;51.098;6.414;2023-02-20T14:58:55;12.02;;;10.77;;
3052;SDS011;1536;51.098;6.414;2023-02-20T15:01:31;17.20;;;10.73;;
3052;SDS011;1536;51.098;6.414;2023-02-20T15:04:04;12.93;;;11.30;;
3052;SDS011;1536;51.098;6.414;2023-02-20T15:06:36;15.18;;;10.25;;
3052;SDS011;1536;51.098;6.414;2023-02-20T15:09:05;15.13;;;10.32;;
3052;SDS011;1536;51.098;6.414;2023-02-20T15:11:36;14.40;;;10.20;;
3052;SDS011;1536;51.098;6.414;2023-02-20T15:14:15;11.30;;;9.50;;
3052;SDS011;1536;51.098;6.414;2023-02-20T15:16:44;19.30;;;10.00;;
3052;SDS011;1536;51.098;6.414;2023-02-20T15:19:21;14.15;;;10.38;;
3052;SDS011;1536;51.098;6.414;2023-02-20T15:22:01;12.57;;;10.18;;
3052;SDS011;1536;51.098;6.414;2023-02-20T15:24:36;20.67;;;11.55;;
3052;SDS011;1536;51.098;6.414;2023-02-20T15:27:09;16.08;;;10.60;;